sensor_id;sensor_type;location;lat;lon;timestamp;temperature;humidity
2453;DHT22;63678;47.994;7.854;2023-01-04T00:00:41;4.30;99.90
2453;DHT22;63678;47.994;7.854;2023-01-04T00:03:14;4.30;99.90
2453;DHT22;63678;47.994;7.854;2023-01-04T00:05:47;4.30;99.90
2453;DHT22;63678;47.994;7.854;2023-01-04T00:08:19;4.20;99.90
2453;DHT22;63678;47.994;7.854;2023-01-04T00:10:52;4.30;99.90
2453;DHT22;63678;47.994;7.854;2023-01-04T00:13:24;4.30;99.90
2453;DHT22;63678;47.994;7.854;2023-01-04T00:15:57;4.30;99.90
2453;DHT22;63678;47.994;7.854;2023-01-04T00:18:39;4.30;99.90
2453;DHT22;63678;47.994;7.854;2023-01-04T00:23:51;4.50;99.90
2453;DHT22;63678;47.994;7.854;2023-01-04T00:26:29;4.50;99.90
2453;DHT22;63678;47.994;7.854;2023-01-04T00:29:06;4.50;99.90
2453;DHT22;63678;47.994;7.854;2023-01-04T00:31:38;4.50;99.90
2453;DHT22;63678;47.994;7.854;2023-01-04T00:34:13;4.40;99.90
2453;DHT22;63678;47.994;7.854;2023-01-04T00:36:46;4.50;99.90
2453;DHT22;63678;47.994;7.854;2023-01-04T00:39:19;4.50;99.90
2453;DHT22;63678;47.994;7.854;2023-01-04T00:41:53;4.60;99.90
2453;DHT22;63678;47.994;7.854;2023-01-04T00:44:33;4.50;99.90
2453;DHT22;63678;47.994;7.854;2023-01-04T00:47:06;4.40;99.90
2453;DHT22;63678;47.994;7.854;2023-01-04T00:49:38;4.30;99.90
2453;DHT22;63678;47.994;7.854;2023-01-04T00:54:43;4.40;99.90
2453;DHT22;63678;47.994;7.854;2023-01-04T00:57:15;4.30;99.90
2453;DHT22;63678;47.994;7.854;2023-01-04T00:59:48;4.40;99.90
2453;DHT22;63678;47.994;7.854;2023-01-04T01:04:53;4.20;99.90
2453;DHT22;63678;47.994;7.854;2023-01-04T01:07:28;4.10;99.90
2453;DHT22;63678;47.994;7.854;2023-01-04T01:10:00;4.10;99.90
2453;DHT22;63678;47.994;7.854;2023-01-04T01:12:32;4.00;99.90
2453;DHT22;63678;47.994;7.854;2023-01-04T01:15:05;4.10;99.90
2453;DHT22;63678;47.994;7.854;2023-01-04T01:17:37;4.10;99.90
2453;DHT22;63678;47.994;7.854;2023-01-04T01:20:10;4.10;99.90
2453;DHT22;63678;47.994;7.854;2023-01-04T01:22:42;4.10;99.90
2453;DHT22;63678;47.994;7.854;2023-01-04T01:25:15;4.00;99.90
2453;DHT22;63678;47.994;7.854;2023-01-04T01:27:47;4.00;99.90
2453;DHT22;63678;47.994;7.854;2023-01-04T01:30:19;3.90;99.90
2453;DHT22;63678;47.994;7.854;2023-01-04T01:32:52;3.90;99.90
2453;DHT22;63678;47.994;7.854;2023-01-04T01:35:24;3.90;99.90
2453;DHT22;63678;47.994;7.854;2023-01-04T01:37:57;3.90;99.90
2453;DHT22;63678;47.994;7.854;2023-01-04T01:40:30;4.00;99.90
2453;DHT22;63678;47.994;7.854;2023-01-04T01:45:34;4.00;99.90
2453;DHT22;63678;47.994;7.854;2023-01-04T01:48:14;4.00;99.90
2453;DHT22;63678;47.994;7.854;2023-01-04T01:50:52;4.10;99.90
2453;DHT22;63678;47.994;7.854;2023-01-04T01:53:31;4.10;99.90
2453;DHT22;63678;47.994;7.854;2023-01-04T01:56:06;4.10;99.90
2453;DHT22;63678;47.994;7.854;2023-01-04T01:58:44;4.20;99.90
2453;DHT22;63678;47.994;7.854;2023-01-04T02:01:20;4.10;99.90
2453;DHT22;63678;47.994;7.854;2023-01-04T02:03:53;4.30;99.90
2453;DHT22;63678;47.994;7.854;2023-01-04T02:06:31;4.50;99.90
2453;DHT22;63678;47.994;7.854;2023-01-04T02:09:05;4.50;99.90
2453;DHT22;63678;47.994;7.854;2023-01-04T02:11:38;4.50;99.90
2453;DHT22;63678;47.994;7.854;2023-01-04T02:14:11;4.60;99.90
2453;DHT22;63678;47.994;7.854;2023-01-04T02:17:39;4.50;99.90
2453;DHT22;63678;47.994;7.854;2023-01-04T02:23:52;4.50;99.90
2453;DHT22;63678;47.994;7.854;2023-01-04T02:35:29;4.50;99.90
2453;DHT22;63678;47.994;7.854;2023-01-04T02:38:24;4.50;99.90
2453;DHT22;63678;47.994;7.854;2023-01-04T02:44:41;4.40;99.90
2453;DHT22;63678;47.994;7.854;2023-01-04T02:47:29;4.40;99.90
2453;DHT22;63678;47.994;7.854;2023-01-04T02:50:28;4.50;99.90
2453;DHT22;63678;47.994;7.854;2023-01-04T02:53:17;4.40;99.90
2453;DHT22;63678;47.994;7.854;2023-01-04T02:55:56;4.40;99.90
2453;DHT22;63678;47.994;7.854;2023-01-04T02:59:14;4.30;99.90
2453;DHT22;63678;47.994;7.854;2023-01-04T03:05:21;4.40;99.90
2453;DHT22;63678;47.994;7.854;2023-01-04T03:08:38;4.30;99.90
2453;DHT22;63678;47.994;7.854;2023-01-04T03:11:15;4.20;99.90
2453;DHT22;63678;47.994;7.854;2023-01-04T03:14:18;4.20;99.90
2453;DHT22;63678;47.994;7.854;2023-01-04T03:17:07;4.20;99.90
2453;DHT22;63678;47.994;7.854;2023-01-04T03:19:43;4.50;99.90
2453;DHT22;63678;47.994;7.854;2023-01-04T03:25:42;4.90;99.90
2453;DHT22;63678;47.994;7.854;2023-01-04T03:28:37;5.60;99.90
2453;DHT22;63678;47.994;7.854;2023-01-04T03:34:22;5.90;99.90
2453;DHT22;63678;47.994;7.854;2023-01-04T03:37:19;5.60;99.90
2453;DHT22;63678;47.994;7.854;2023-01-04T03:40:21;5.60;99.90
2453;DHT22;63678;47.994;7.854;2023-01-04T03:43:20;5.50;99.90
2453;DHT22;63678;47.994;7.854;2023-01-04T03:46:21;5.80;99.90
2453;DHT22;63678;47.994;7.854;2023-01-04T03:52:02;5.60;99.90
2453;DHT22;63678;47.994;7.854;2023-01-04T03:54:37;5.40;99.90
2453;DHT22;63678;47.994;7.854;2023-01-04T03:57:11;5.10;99.90
2453;DHT22;63678;47.994;7.854;2023-01-04T03:59:51;5.20;99.90
2453;DHT22;63678;47.994;7.854;2023-01-04T04:02:28;5.50;99.90
2453;DHT22;63678;47.994;7.854;2023-01-04T04:05:02;5.60;99.90
2453;DHT22;63678;47.994;7.854;2023-01-04T04:07:53;5.30;99.90
2453;DHT22;63678;47.994;7.854;2023-01-04T04:10:44;5.00;99.90
2453;DHT22;63678;47.994;7.854;2023-01-04T04:15:53;5.50;99.90
2453;DHT22;63678;47.994;7.854;2023-01-04T04:18:26;5.30;99.90
2453;DHT22;63678;47.994;7.854;2023-01-04T04:20:58;5.10;99.90
2453;DHT22;63678;47.994;7.854;2023-01-04T04:23:30;5.90;99.90
2453;DHT22;63678;47.994;7.854;2023-01-04T04:26:03;6.30;99.90
2453;DHT22;63678;47.994;7.854;2023-01-04T04:28:35;6.50;99.90
2453;DHT22;63678;47.994;7.854;2023-01-04T04:31:08;7.10;99.90
2453;DHT22;63678;47.994;7.854;2023-01-04T04:33:41;7.10;99.90
2453;DHT22;63678;47.994;7.854;2023-01-04T04:38:47;7.30;99.90
2453;DHT22;63678;47.994;7.854;2023-01-04T04:41:19;7.60;99.90
2453;DHT22;63678;47.994;7.854;2023-01-04T04:44:14;6.80;99.90
2453;DHT22;63678;47.994;7.854;2023-01-04T04:49:21;7.30;99.90
2453;DHT22;63678;47.994;7.854;2023-01-04T04:54:26;7.80;99.90
2453;DHT22;63678;47.994;7.854;2023-01-04T04:56:59;8.20;99.90
2453;DHT22;63678;47.994;7.854;2023-01-04T04:59:31;8.30;99.90
2453;DHT22;63678;47.994;7.854;2023-01-04T05:02:04;8.30;99.90
2453;DHT22;63678;47.994;7.854;2023-01-04T05:04:36;8.40;99.90
2453;DHT22;63678;47.994;7.854;2023-01-04T05:07:09;8.40;99.90
2453;DHT22;63678;47.994;7.854;2023-01-04T05:09:43;8.60;99.90
2453;DHT22;63678;47.994;7.854;2023-01-04T05:12:16;8.60;99.90
2453;DHT22;63678;47.994;7.854;2023-01-04T05:15:07;8.90;99.90
2453;DHT22;63678;47.994;7.854;2023-01-04T05:17:39;8.90;99.90
2453;DHT22;63678;47.994;7.854;2023-01-04T05:20:11;8.90;99.90
2453;DHT22;63678;47.994;7.854;2023-01-04T05:22:44;9.10;99.90
2453;DHT22;63678;47.994;7.854;2023-01-04T05:25:16;9.20;99.90
2453;DHT22;63678;47.994;7.854;2023-01-04T05:27:49;9.20;99.90
2453;DHT22;63678;47.994;7.854;2023-01-04T05:30:23;9.40;99.90
2453;DHT22;63678;47.994;7.854;2023-01-04T05:33:14;9.50;99.90
2453;DHT22;63678;47.994;7.854;2023-01-04T05:35:46;9.50;99.90
2453;DHT22;63678;47.994;7.854;2023-01-04T05:38:20;9.50;99.90
2453;DHT22;63678;47.994;7.854;2023-01-04T05:40:53;9.70;99.90
2453;DHT22;63678;47.994;7.854;2023-01-04T05:43:25;9.70;99.90
2453;DHT22;63678;47.994;7.854;2023-01-04T05:45:58;9.60;99.90
2453;DHT22;63678;47.994;7.854;2023-01-04T05:48:30;9.80;99.90
2453;DHT22;63678;47.994;7.854;2023-01-04T05:51:03;9.70;99.90
2453;DHT22;63678;47.994;7.854;2023-01-04T05:53:36;9.90;99.90
2453;DHT22;63678;47.994;7.854;2023-01-04T05:56:08;9.90;99.90
2453;DHT22;63678;47.994;7.854;2023-01-04T05:58:41;9.90;99.90
2453;DHT22;63678;47.994;7.854;2023-01-04T06:03:45;9.80;99.90
2453;DHT22;63678;47.994;7.854;2023-01-04T06:08:51;9.80;99.90
2453;DHT22;63678;47.994;7.854;2023-01-04T06:11:24;9.90;99.90
2453;DHT22;63678;47.994;7.854;2023-01-04T06:13:58;10.00;99.90
2453;DHT22;63678;47.994;7.854;2023-01-04T06:16:32;10.00;99.90
2453;DHT22;63678;47.994;7.854;2023-01-04T06:21:37;10.00;99.90
2453;DHT22;63678;47.994;7.854;2023-01-04T06:24:10;10.00;99.90
2453;DHT22;63678;47.994;7.854;2023-01-04T06:29:15;10.10;99.90
2453;DHT22;63678;47.994;7.854;2023-01-04T06:31:47;10.00;99.90
2453;DHT22;63678;47.994;7.854;2023-01-04T06:34:20;10.10;99.90
2453;DHT22;63678;47.994;7.854;2023-01-04T06:37:01;10.10;99.90
2453;DHT22;63678;47.994;7.854;2023-01-04T06:42:08;10.10;99.90
2453;DHT22;63678;47.994;7.854;2023-01-04T06:47:34;10.20;99.90
2453;DHT22;63678;47.994;7.854;2023-01-04T06:50:06;10.30;99.90
2453;DHT22;63678;47.994;7.854;2023-01-04T06:52:40;10.30;99.90
2453;DHT22;63678;47.994;7.854;2023-01-04T06:55:12;10.40;99.90
2453;DHT22;63678;47.994;7.854;2023-01-04T06:57:44;10.30;99.90
2453;DHT22;63678;47.994;7.854;2023-01-04T07:00:17;10.40;99.90
2453;DHT22;63678;47.994;7.854;2023-01-04T07:02:49;10.40;99.90
2453;DHT22;63678;47.994;7.854;2023-01-04T07:05:42;10.40;99.90
2453;DHT22;63678;47.994;7.854;2023-01-04T07:08:15;10.40;99.90
2453;DHT22;63678;47.994;7.854;2023-01-04T07:10:47;10.50;99.90
2453;DHT22;63678;47.994;7.854;2023-01-04T07:13:20;10.50;99.90
2453;DHT22;63678;47.994;7.854;2023-01-04T07:15:52;10.50;99.90
2453;DHT22;63678;47.994;7.854;2023-01-04T07:18:46;10.50;99.90
2453;DHT22;63678;47.994;7.854;2023-01-04T07:21:18;10.40;99.90
2453;DHT22;63678;47.994;7.854;2023-01-04T07:23:51;10.40;99.90
2453;DHT22;63678;47.994;7.854;2023-01-04T07:26:23;10.30;99.90
2453;DHT22;63678;47.994;7.854;2023-01-04T07:31:49;10.50;99.90
2453;DHT22;63678;47.994;7.854;2023-01-04T07:34:24;10.40;99.90
2453;DHT22;63678;47.994;7.854;2023-01-04T07:42:04;10.30;99.90
2453;DHT22;63678;47.994;7.854;2023-01-04T07:44:36;10.20;99.90
2453;DHT22;63678;47.994;7.854;2023-01-04T07:47:12;10.10;99.90
2453;DHT22;63678;47.994;7.854;2023-01-04T07:49:44;10.10;99.90
2453;DHT22;63678;47.994;7.854;2023-01-04T07:52:19;10.00;99.90
2453;DHT22;63678;47.994;7.854;2023-01-04T07:54:52;10.10;99.90
2453;DHT22;63678;47.994;7.854;2023-01-04T07:59:57;10.10;99.90
2453;DHT22;63678;47.994;7.854;2023-01-04T08:02:42;10.00;99.90
2453;DHT22;63678;47.994;7.854;2023-01-04T08:05:15;9.90;99.90
2453;DHT22;63678;47.994;7.854;2023-01-04T08:10:21;9.50;99.90
2453;DHT22;63678;47.994;7.854;2023-01-04T08:12:59;9.50;99.90
2453;DHT22;63678;47.994;7.854;2023-01-04T08:20:38;9.30;99.90
2453;DHT22;63678;47.994;7.854;2023-01-04T08:23:11;9.30;99.90
2453;DHT22;63678;47.994;7.854;2023-01-04T08:25:43;9.30;99.90
2453;DHT22;63678;47.994;7.854;2023-01-04T08:28:15;9.30;99.90
2453;DHT22;63678;47.994;7.854;2023-01-04T08:30:48;9.20;99.90
2453;DHT22;63678;47.994;7.854;2023-01-04T08:35:53;9.20;99.90
2453;DHT22;63678;47.994;7.854;2023-01-04T08:41:19;9.20;99.90
2453;DHT22;63678;47.994;7.854;2023-01-04T08:44:12;9.30;99.90
2453;DHT22;63678;47.994;7.854;2023-01-04T08:47:06;9.20;99.90
2453;DHT22;63678;47.994;7.854;2023-01-04T08:49:38;9.30;99.90
2453;DHT22;63678;47.994;7.854;2023-01-04T08:52:10;9.20;99.90
2453;DHT22;63678;47.994;7.854;2023-01-04T08:54:44;9.10;99.90
2453;DHT22;63678;47.994;7.854;2023-01-04T08:57:17;9.20;99.90
2453;DHT22;63678;47.994;7.854;2023-01-04T08:59:50;9.20;99.90
2453;DHT22;63678;47.994;7.854;2023-01-04T09:02:26;9.20;99.90
2453;DHT22;63678;47.994;7.854;2023-01-04T09:04:59;9.10;99.90
2453;DHT22;63678;47.994;7.854;2023-01-04T09:07:34;9.10;99.90
2453;DHT22;63678;47.994;7.854;2023-01-04T09:10:09;9.10;99.90
2453;DHT22;63678;47.994;7.854;2023-01-04T09:12:42;9.10;99.90
2453;DHT22;63678;47.994;7.854;2023-01-04T09:15:16;9.10;99.90
2453;DHT22;63678;47.994;7.854;2023-01-04T09:17:49;9.20;99.90
2453;DHT22;63678;47.994;7.854;2023-01-04T09:23:14;9.20;99.90
2453;DHT22;63678;47.994;7.854;2023-01-04T09:25:46;9.20;99.90
2453;DHT22;63678;47.994;7.854;2023-01-04T09:33:24;9.40;99.90
2453;DHT22;63678;47.994;7.854;2023-01-04T09:36:17;9.30;99.90
2453;DHT22;63678;47.994;7.854;2023-01-04T09:41:30;9.40;99.90
2453;DHT22;63678;47.994;7.854;2023-01-04T09:46:51;9.50;99.90
2453;DHT22;63678;47.994;7.854;2023-01-04T09:49:55;9.70;99.90
2453;DHT22;63678;47.994;7.854;2023-01-04T09:55:40;9.80;99.90
2453;DHT22;63678;47.994;7.854;2023-01-04T09:58:27;9.80;99.90
2453;DHT22;63678;47.994;7.854;2023-01-04T10:01:17;9.90;99.90
2453;DHT22;63678;47.994;7.854;2023-01-04T10:35:59;10.30;99.90
2453;DHT22;63678;47.994;7.854;2023-01-04T10:38:33;10.30;99.90
2453;DHT22;63678;47.994;7.854;2023-01-04T10:41:19;10.40;99.90
2453;DHT22;63678;47.994;7.854;2023-01-04T10:44:06;10.40;99.90
2453;DHT22;63678;47.994;7.854;2023-01-04T10:47:08;10.40;99.90
2453;DHT22;63678;47.994;7.854;2023-01-04T10:49:51;10.50;99.90
2453;DHT22;63678;47.994;7.854;2023-01-04T10:55:46;10.50;99.90
2453;DHT22;63678;47.994;7.854;2023-01-04T11:01:44;10.60;99.90
2453;DHT22;63678;47.994;7.854;2023-01-04T11:04:34;10.70;99.90
2453;DHT22;63678;47.994;7.854;2023-01-04T11:07:22;10.70;99.90
2453;DHT22;63678;47.994;7.854;2023-01-04T11:10:09;10.80;99.90
2453;DHT22;63678;47.994;7.854;2023-01-04T11:12:44;10.80;99.90
2453;DHT22;63678;47.994;7.854;2023-01-04T11:17:50;10.90;99.90
2453;DHT22;63678;47.994;7.854;2023-01-04T11:23:02;11.00;99.90
2453;DHT22;63678;47.994;7.854;2023-01-04T11:25:45;11.00;99.90
2453;DHT22;63678;47.994;7.854;2023-01-04T11:31:47;11.10;99.90
2453;DHT22;63678;47.994;7.854;2023-01-04T11:34:51;11.10;99.90
2453;DHT22;63678;47.994;7.854;2023-01-04T11:37:35;11.10;99.90
2453;DHT22;63678;47.994;7.854;2023-01-04T11:45:59;11.10;99.90
2453;DHT22;63678;47.994;7.854;2023-01-04T11:48:43;11.10;99.90
2453;DHT22;63678;47.994;7.854;2023-01-04T11:51:34;11.10;99.90
2453;DHT22;63678;47.994;7.854;2023-01-04T11:54:26;11.10;99.90
2453;DHT22;63678;47.994;7.854;2023-01-04T11:57:04;11.10;99.90
2453;DHT22;63678;47.994;7.854;2023-01-04T11:59:43;11.10;99.90
2453;DHT22;63678;47.994;7.854;2023-01-04T12:02:19;11.20;99.90
2453;DHT22;63678;47.994;7.854;2023-01-04T12:05:20;11.10;99.90
2453;DHT22;63678;47.994;7.854;2023-01-04T12:13:08;11.10;99.90
2453;DHT22;63678;47.994;7.854;2023-01-04T12:16:07;11.20;99.90
2453;DHT22;63678;47.994;7.854;2023-01-04T12:18:46;11.10;99.90
2453;DHT22;63678;47.994;7.854;2023-01-04T12:21:24;11.10;99.90
2453;DHT22;63678;47.994;7.854;2023-01-04T12:23:57;11.10;99.90
2453;DHT22;63678;47.994;7.854;2023-01-04T12:26:29;11.10;99.90
2453;DHT22;63678;47.994;7.854;2023-01-04T12:34:44;11.10;99.90
2453;DHT22;63678;47.994;7.854;2023-01-04T12:46:32;11.10;99.90
2453;DHT22;63678;47.994;7.854;2023-01-04T12:55:03;11.00;99.90
2453;DHT22;63678;47.994;7.854;2023-01-04T12:57:36;10.90;99.90
2453;DHT22;63678;47.994;7.854;2023-01-04T13:00:11;10.90;99.90
2453;DHT22;63678;47.994;7.854;2023-01-04T13:03:32;10.90;99.90
2453;DHT22;63678;47.994;7.854;2023-01-04T13:06:02;10.90;99.90
2453;DHT22;63678;47.994;7.854;2023-01-04T13:08:40;10.90;99.90
2453;DHT22;63678;47.994;7.854;2023-01-04T13:11:39;10.70;99.90
2453;DHT22;63678;47.994;7.854;2023-01-04T13:14:42;10.80;99.90
2453;DHT22;63678;47.994;7.854;2023-01-04T13:17:21;10.90;99.90
2453;DHT22;63678;47.994;7.854;2023-01-04T13:19:56;10.90;99.90
2453;DHT22;63678;47.994;7.854;2023-01-04T13:22:29;10.90;99.90
2453;DHT22;63678;47.994;7.854;2023-01-04T13:30:38;10.90;99.90
2453;DHT22;63678;47.994;7.854;2023-01-04T13:33:16;10.80;99.90
2453;DHT22;63678;47.994;7.854;2023-01-04T13:36:02;10.80;99.90
2453;DHT22;63678;47.994;7.854;2023-01-04T13:39:22;10.90;99.90
2453;DHT22;63678;47.994;7.854;2023-01-04T13:42:30;10.80;99.90
2453;DHT22;63678;47.994;7.854;2023-01-04T13:48:21;10.90;99.90
2453;DHT22;63678;47.994;7.854;2023-01-04T13:51:11;10.90;99.90
2453;DHT22;63678;47.994;7.854;2023-01-04T13:54:19;10.90;99.90
2453;DHT22;63678;47.994;7.854;2023-01-04T13:57:07;11.00;99.90
2453;DHT22;63678;47.994;7.854;2023-01-04T13:59:40;11.00;99.90
2453;DHT22;63678;47.994;7.854;2023-01-04T14:02:20;10.90;99.90
2453;DHT22;63678;47.994;7.854;2023-01-04T14:07:26;10.90;99.90
2453;DHT22;63678;47.994;7.854;2023-01-04T14:09:59;10.90;99.90
2453;DHT22;63678;47.994;7.854;2023-01-04T14:12:31;11.00;99.90
2453;DHT22;63678;47.994;7.854;2023-01-04T14:15:20;11.00;99.90
2453;DHT22;63678;47.994;7.854;2023-01-04T14:17:55;11.00;99.90
2453;DHT22;63678;47.994;7.854;2023-01-04T14:23:18;11.10;99.90
2453;DHT22;63678;47.994;7.854;2023-01-04T14:25:56;11.10;99.90
2453;DHT22;63678;47.994;7.854;2023-01-04T14:28:37;11.20;99.90
2453;DHT22;63678;47.994;7.854;2023-01-04T14:31:24;11.20;99.90
2453;DHT22;63678;47.994;7.854;2023-01-04T14:33:58;11.10;99.90
2453;DHT22;63678;47.994;7.854;2023-01-04T14:36:38;11.10;99.90
2453;DHT22;63678;47.994;7.854;2023-01-04T14:39:17;11.10;99.90
2453;DHT22;63678;47.994;7.854;2023-01-04T14:41:54;11.10;99.90
2453;DHT22;63678;47.994;7.854;2023-01-04T14:44:29;11.10;99.90
2453;DHT22;63678;47.994;7.854;2023-01-04T14:47:02;11.00;99.90
2453;DHT22;63678;47.994;7.854;2023-01-04T14:49:37;11.10;99.90
2453;DHT22;63678;47.994;7.854;2023-01-04T14:52:16;11.00;99.90
2453;DHT22;63678;47.994;7.854;2023-01-04T14:55:14;11.00;99.90
2453;DHT22;63678;47.994;7.854;2023-01-04T14:57:46;11.00;99.90
2453;DHT22;63678;47.994;7.854;2023-01-04T15:05:24;11.00;99.90
2453;DHT22;63678;47.994;7.854;2023-01-04T15:10:30;10.90;99.90
2453;DHT22;63678;47.994;7.854;2023-01-04T15:18:10;10.90;99.90
2453;DHT22;63678;47.994;7.854;2023-01-04T15:28:21;10.90;99.90
2453;DHT22;63678;47.994;7.854;2023-01-04T15:36:06;10.80;99.90
2453;DHT22;63678;47.994;7.854;2023-01-04T15:38:40;10.90;99.90
2453;DHT22;63678;47.994;7.854;2023-01-04T15:41:15;10.90;99.90
2453;DHT22;63678;47.994;7.854;2023-01-04T15:44:08;10.90;99.90
2453;DHT22;63678;47.994;7.854;2023-01-04T15:49:15;10.90;99.90
2453;DHT22;63678;47.994;7.854;2023-01-04T15:51:49;10.90;99.90
2453;DHT22;63678;47.994;7.854;2023-01-04T15:54:28;10.90;99.90
2453;DHT22;63678;47.994;7.854;2023-01-04T15:57:01;10.90;99.90
2453;DHT22;63678;47.994;7.854;2023-01-04T15:59:33;10.90;99.90
2453;DHT22;63678;47.994;7.854;2023-01-04T16:02:06;10.90;99.90
2453;DHT22;63678;47.994;7.854;2023-01-04T16:04:42;11.00;99.90
2453;DHT22;63678;47.994;7.854;2023-01-04T16:12:44;11.00;99.90
2453;DHT22;63678;47.994;7.854;2023-01-04T16:20:43;11.10;99.90
2453;DHT22;63678;47.994;7.854;2023-01-04T16:28:21;11.10;99.90
2453;DHT22;63678;47.994;7.854;2023-01-04T16:30:53;11.10;99.90
2453;DHT22;63678;47.994;7.854;2023-01-04T16:38:38;11.10;99.90
2453;DHT22;63678;47.994;7.854;2023-01-04T16:41:15;11.10;99.90
2453;DHT22;63678;47.994;7.854;2023-01-04T16:43:51;11.10;99.90
2453;DHT22;63678;47.994;7.854;2023-01-04T16:46:28;11.10;99.90
2453;DHT22;63678;47.994;7.854;2023-01-04T16:49:13;11.10;99.90
2453;DHT22;63678;47.994;7.854;2023-01-04T16:54:20;11.20;99.90
2453;DHT22;63678;47.994;7.854;2023-01-04T16:56:54;11.20;99.90
2453;DHT22;63678;47.994;7.854;2023-01-04T16:59:30;11.20;99.90
2453;DHT22;63678;47.994;7.854;2023-01-04T17:07:08;11.20;99.90
2453;DHT22;63678;47.994;7.854;2023-01-04T17:09:40;11.20;99.90
2453;DHT22;63678;47.994;7.854;2023-01-04T17:12:13;11.10;99.90
2453;DHT22;63678;47.994;7.854;2023-01-04T17:15:05;11.30;99.90
2453;DHT22;63678;47.994;7.854;2023-01-04T17:18:20;11.30;99.90
2453;DHT22;63678;47.994;7.854;2023-01-04T17:20:55;14.10;99.90
2453;DHT22;63678;47.994;7.854;2023-01-04T17:23:51;11.30;99.90
2453;DHT22;63678;47.994;7.854;2023-01-04T17:26:27;11.30;99.90
2453;DHT22;63678;47.994;7.854;2023-01-04T17:29:00;11.30;99.90
2453;DHT22;63678;47.994;7.854;2023-01-04T17:31:35;11.30;99.90
2453;DHT22;63678;47.994;7.854;2023-01-04T17:34:12;11.30;99.90
2453;DHT22;63678;47.994;7.854;2023-01-04T17:36:54;11.30;99.90
2453;DHT22;63678;47.994;7.854;2023-01-04T17:42:02;11.30;99.90
2453;DHT22;63678;47.994;7.854;2023-01-04T17:44:39;11.30;99.90
2453;DHT22;63678;47.994;7.854;2023-01-04T17:50:05;11.40;99.90
2453;DHT22;63678;47.994;7.854;2023-01-04T17:57:43;11.40;99.90
2453;DHT22;63678;47.994;7.854;2023-01-04T18:00:16;11.40;99.90
2453;DHT22;63678;47.994;7.854;2023-01-04T18:02:49;11.40;99.90
2453;DHT22;63678;47.994;7.854;2023-01-04T18:05:22;11.50;99.90
2453;DHT22;63678;47.994;7.854;2023-01-04T18:07:54;11.50;99.90
2453;DHT22;63678;47.994;7.854;2023-01-04T18:13:20;11.50;99.90
2453;DHT22;63678;47.994;7.854;2023-01-04T18:15:58;11.60;99.90
2453;DHT22;63678;47.994;7.854;2023-01-04T18:18:53;11.70;99.90
2453;DHT22;63678;47.994;7.854;2023-01-04T18:21:28;11.60;99.90
2453;DHT22;63678;47.994;7.854;2023-01-04T18:24:02;11.60;99.90
2453;DHT22;63678;47.994;7.854;2023-01-04T18:26:59;11.60;99.90
2453;DHT22;63678;47.994;7.854;2023-01-04T18:29:52;11.70;99.90
2453;DHT22;63678;47.994;7.854;2023-01-04T18:34:59;11.50;99.90
2453;DHT22;63678;47.994;7.854;2023-01-04T18:37:36;11.50;99.90
2453;DHT22;63678;47.994;7.854;2023-01-04T18:40:08;11.50;99.90
2453;DHT22;63678;47.994;7.854;2023-01-04T18:42:48;11.60;99.90
2453;DHT22;63678;47.994;7.854;2023-01-04T18:45:20;11.60;99.90
2453;DHT22;63678;47.994;7.854;2023-01-04T18:47:53;11.60;99.90
2453;DHT22;63678;47.994;7.854;2023-01-04T18:50:25;11.60;99.90
2453;DHT22;63678;47.994;7.854;2023-01-04T18:52:57;11.60;99.90
2453;DHT22;63678;47.994;7.854;2023-01-04T18:55:30;11.70;99.90
2453;DHT22;63678;47.994;7.854;2023-01-04T18:58:02;11.80;99.90
2453;DHT22;63678;47.994;7.854;2023-01-04T19:00:35;11.80;99.90
2453;DHT22;63678;47.994;7.854;2023-01-04T19:03:07;11.70;99.90
2453;DHT22;63678;47.994;7.854;2023-01-04T19:05:47;11.70;99.90
2453;DHT22;63678;47.994;7.854;2023-01-04T19:08:19;11.80;99.90
2453;DHT22;63678;47.994;7.854;2023-01-04T19:10:52;11.80;99.90
2453;DHT22;63678;47.994;7.854;2023-01-04T19:15:58;11.70;99.90
2453;DHT22;63678;47.994;7.854;2023-01-04T19:18:30;11.80;99.90
2453;DHT22;63678;47.994;7.854;2023-01-04T19:21:03;11.70;99.90
2453;DHT22;63678;47.994;7.854;2023-01-04T19:23:36;11.70;99.90
2453;DHT22;63678;47.994;7.854;2023-01-04T19:31:15;11.70;99.90
2453;DHT22;63678;47.994;7.854;2023-01-04T19:33:48;11.70;99.90
2453;DHT22;63678;47.994;7.854;2023-01-04T19:41:27;11.70;99.90
2453;DHT22;63678;47.994;7.854;2023-01-04T19:44:08;11.60;99.90
2453;DHT22;63678;47.994;7.854;2023-01-04T19:47:03;11.60;99.90
2453;DHT22;63678;47.994;7.854;2023-01-04T19:49:35;11.70;99.90
2453;DHT22;63678;47.994;7.854;2023-01-04T19:52:08;11.70;99.90
2453;DHT22;63678;47.994;7.854;2023-01-04T19:54:40;11.70;99.90
2453;DHT22;63678;47.994;7.854;2023-01-04T20:02:19;11.70;99.90
2453;DHT22;63678;47.994;7.854;2023-01-04T20:04:52;11.80;99.90
2453;DHT22;63678;47.994;7.854;2023-01-04T20:07:25;11.70;99.90
2453;DHT22;63678;47.994;7.854;2023-01-04T20:12:30;11.80;99.90
2453;DHT22;63678;47.994;7.854;2023-01-04T20:15:03;11.80;99.90
2453;DHT22;63678;47.994;7.854;2023-01-04T20:17:35;11.80;99.90
2453;DHT22;63678;47.994;7.854;2023-01-04T20:20:07;11.80;99.90
2453;DHT22;63678;47.994;7.854;2023-01-04T20:22:40;11.70;99.90
2453;DHT22;63678;47.994;7.854;2023-01-04T20:25:12;11.80;99.90
2453;DHT22;63678;47.994;7.854;2023-01-04T20:30:20;11.80;99.90
2453;DHT22;63678;47.994;7.854;2023-01-04T20:32:52;11.80;99.90
2453;DHT22;63678;47.994;7.854;2023-01-04T20:35:28;11.80;99.90
2453;DHT22;63678;47.994;7.854;2023-01-04T20:38:00;11.80;99.90
2453;DHT22;63678;47.994;7.854;2023-01-04T20:40:35;11.70;99.90
2453;DHT22;63678;47.994;7.854;2023-01-04T20:43:28;11.80;99.90
2453;DHT22;63678;47.994;7.854;2023-01-04T20:46:09;11.80;99.90
2453;DHT22;63678;47.994;7.854;2023-01-04T20:51:19;11.70;99.90
2453;DHT22;63678;47.994;7.854;2023-01-04T20:53:55;11.80;99.90
2453;DHT22;63678;47.994;7.854;2023-01-04T20:56:31;11.70;99.90
2453;DHT22;63678;47.994;7.854;2023-01-04T20:59:08;11.70;99.90
2453;DHT22;63678;47.994;7.854;2023-01-04T21:01:40;11.70;99.90
2453;DHT22;63678;47.994;7.854;2023-01-04T21:04:13;11.70;99.90
2453;DHT22;63678;47.994;7.854;2023-01-04T21:06:47;11.70;99.90
2453;DHT22;63678;47.994;7.854;2023-01-04T21:09:19;11.70;99.90
2453;DHT22;63678;47.994;7.854;2023-01-04T21:14:26;11.70;99.90
2453;DHT22;63678;47.994;7.854;2023-01-04T21:16:59;11.70;99.90
2453;DHT22;63678;47.994;7.854;2023-01-04T21:19:31;11.70;99.90
2453;DHT22;63678;47.994;7.854;2023-01-04T21:24:38;11.70;99.90
2453;DHT22;63678;47.994;7.854;2023-01-04T21:27:11;11.70;99.90
2453;DHT22;63678;47.994;7.854;2023-01-04T21:29:43;11.70;99.90
2453;DHT22;63678;47.994;7.854;2023-01-04T21:32:16;11.70;99.90
2453;DHT22;63678;47.994;7.854;2023-01-04T21:34:48;11.70;99.90
2453;DHT22;63678;47.994;7.854;2023-01-04T21:37:20;11.70;99.90
2453;DHT22;63678;47.994;7.854;2023-01-04T21:44:58;11.70;99.90
2453;DHT22;63678;47.994;7.854;2023-01-04T21:47:31;11.70;99.90
2453;DHT22;63678;47.994;7.854;2023-01-04T21:50:04;11.70;99.90
2453;DHT22;63678;47.994;7.854;2023-01-04T21:52:37;11.60;99.90
2453;DHT22;63678;47.994;7.854;2023-01-04T21:55:09;11.60;99.90
2453;DHT22;63678;47.994;7.854;2023-01-04T21:57:41;11.60;99.90
2453;DHT22;63678;47.994;7.854;2023-01-04T22:00:14;11.60;99.90
2453;DHT22;63678;47.994;7.854;2023-01-04T22:02:46;11.60;99.90
2453;DHT22;63678;47.994;7.854;2023-01-04T22:05:18;11.60;99.90